createdAt,value
2018-01-08T00:01:51.162Z,23.43
2018-01-08T00:04:21.990Z,20.57
2018-01-08T00:06:52.809Z,20.60
2018-01-08T00:09:30.688Z,25.43
2018-01-08T00:12:01.420Z,26.73
2018-01-08T00:14:32.193Z,24.67
2018-01-08T00:17:03.014Z,23.90
2018-01-08T00:19:33.771Z,23.07
2018-01-08T00:22:04.537Z,25.77
2018-01-08T00:24:35.437Z,28.30
2018-01-08T00:27:06.208Z,27.13
2018-01-08T00:29:36.968Z,25.07
2018-01-08T00:32:07.716Z,22.80
2018-01-08T00:34:38.492Z,22.73
2018-01-08T00:37:09.232Z,21.07
2018-01-08T00:39:39.997Z,23.43
2018-01-08T00:42:10.744Z,24.87
2018-01-08T00:44:41.516Z,22.97
2018-01-08T00:47:12.280Z,21.27
2018-01-08T00:49:44.140Z,26.40
2018-01-08T00:52:14.880Z,25.52
2018-01-08T00:54:45.672Z,25.60
2018-01-08T00:57:16.502Z,23.03
2018-01-08T00:59:47.294Z,22.53
2018-01-08T01:02:18.059Z,25.20
2018-01-08T01:04:48.864Z,24.83
2018-01-08T01:07:19.604Z,23.67
2018-01-08T01:09:50.373Z,24.93
2018-01-08T01:12:21.116Z,27.33
2018-01-08T01:14:51.872Z,24.07
2018-01-08T01:17:24.672Z,23.07
2018-01-08T01:19:55.524Z,22.87
2018-01-08T01:22:26.282Z,24.40
2018-01-08T01:24:57.125Z,27.13
2018-01-08T01:27:27.972Z,23.97
2018-01-08T01:29:58.769Z,26.20
2018-01-08T01:32:29.513Z,21.70
2018-01-08T01:35:00.300Z,23.37
2018-01-08T01:37:31.048Z,24.93
2018-01-08T01:40:01.837Z,23.13
2018-01-08T01:42:32.620Z,22.67
2018-01-08T01:45:03.393Z,26.27
2018-01-08T01:47:34.170Z,25.60
2018-01-08T01:50:04.929Z,22.20
2018-01-08T01:52:35.679Z,22.43
2018-01-08T01:55:06.467Z,25.40
2018-01-08T01:57:37.273Z,21.60
2018-01-08T02:00:08.042Z,22.30
2018-01-08T02:02:38.792Z,23.00
2018-01-08T02:05:09.535Z,24.23
2018-01-08T02:07:40.272Z,24.30
2018-01-08T02:10:11.033Z,25.10
2018-01-08T02:12:41.792Z,27.53
2018-01-08T02:15:12.574Z,20.93
2018-01-08T02:17:43.330Z,24.70
2018-01-08T02:20:14.084Z,24.23
2018-01-08T02:22:44.840Z,25.20
2018-01-08T02:25:15.620Z,23.50
2018-01-08T02:27:46.374Z,26.10
2018-01-08T02:30:17.128Z,23.70
2018-01-08T02:32:47.876Z,24.63
2018-01-08T02:35:18.644Z,26.10
2018-01-08T02:37:49.413Z,24.20
2018-01-08T02:40:20.182Z,20.90
2018-01-08T02:42:50.951Z,25.37
2018-01-08T02:45:21.733Z,24.80
2018-01-08T02:47:52.497Z,25.60
2018-01-08T02:50:23.284Z,21.00
2018-01-08T02:52:54.085Z,25.33
2018-01-08T02:55:24.870Z,20.80
2018-01-08T02:57:55.618Z,23.40
2018-01-08T03:00:27.465Z,22.93
2018-01-08T03:02:58.216Z,26.08
2018-01-08T03:05:29.011Z,23.60
2018-01-08T03:07:59.772Z,21.80
2018-01-08T03:10:30.536Z,23.40
2018-01-08T03:13:01.300Z,21.70
2018-01-08T03:15:35.316Z,19.80
2018-01-08T03:18:06.071Z,19.23
2018-01-08T03:20:36.863Z,21.13
2018-01-08T03:23:07.629Z,20.97
2018-01-08T03:25:38.396Z,24.80
2018-01-08T03:28:09.142Z,24.10
2018-01-08T03:30:39.925Z,20.97
2018-01-08T03:33:10.701Z,22.60
2018-01-08T03:35:41.481Z,21.63
2018-01-08T03:38:12.245Z,21.47
2018-01-08T03:40:43.008Z,18.00
2018-01-08T03:43:13.764Z,21.67
2018-01-08T03:45:44.572Z,20.50
2018-01-08T03:48:15.360Z,22.57
2018-01-08T03:50:46.117Z,21.53
2018-01-08T03:53:16.872Z,17.67
2018-01-08T03:55:47.637Z,22.80
2018-01-08T03:58:19.441Z,17.47
2018-01-08T04:00:50.221Z,17.67
2018-01-08T04:03:20.980Z,18.00
2018-01-08T04:05:51.741Z,21.00
2018-01-08T04:08:22.499Z,17.20
2018-01-08T04:10:53.297Z,19.00
2018-01-08T04:13:24.044Z,19.20
2018-01-08T04:15:54.821Z,18.10
2018-01-08T04:18:25.566Z,20.30
2018-01-08T04:20:56.344Z,21.90
2018-01-08T04:23:27.096Z,18.93
2018-01-08T04:25:57.868Z,18.80
2018-01-08T04:28:28.610Z,18.77
2018-01-08T04:30:59.419Z,18.90
2018-01-08T04:33:30.226Z,21.87
2018-01-08T04:36:00.992Z,20.57
2018-01-08T04:38:31.748Z,20.20
2018-01-08T04:41:02.522Z,17.23
2018-01-08T04:43:33.277Z,23.20
2018-01-08T04:46:04.049Z,21.43
2018-01-08T04:48:34.788Z,21.23
2018-01-08T04:51:05.566Z,17.93
2018-01-08T04:53:36.328Z,16.50
2018-01-08T04:56:07.091Z,26.47
2018-01-08T04:58:37.828Z,19.10
2018-01-08T05:01:08.587Z,23.60
2018-01-08T05:03:39.324Z,20.80
2018-01-08T05:06:10.093Z,23.80
2018-01-08T05:08:40.853Z,21.30
2018-01-08T05:11:11.615Z,17.70
2018-01-08T05:13:42.340Z,19.17
2018-01-08T05:16:13.103Z,20.87
2018-01-08T05:18:43.848Z,21.87
2018-01-08T05:21:14.641Z,27.57
2018-01-08T05:23:45.376Z,25.43
2018-01-08T05:26:16.144Z,20.20
2018-01-08T05:28:46.893Z,19.60
2018-01-08T05:31:17.656Z,17.23
2018-01-08T05:33:48.404Z,18.10
2018-01-08T05:36:19.154Z,19.70
2018-01-08T05:38:49.898Z,17.07
2018-01-08T05:41:20.657Z,18.07
2018-01-08T05:43:51.413Z,18.10
2018-01-08T05:46:22.189Z,15.07
2018-01-08T05:48:52.962Z,22.97
2018-01-08T05:51:23.732Z,17.80
2018-01-08T05:53:54.480Z,19.10
2018-01-08T05:56:25.248Z,18.50
2018-01-08T05:58:56.021Z,17.40
2018-01-08T06:01:26.789Z,20.00
2018-01-08T06:03:57.564Z,18.10
2018-01-08T06:06:28.339Z,19.37
2018-01-08T06:08:59.097Z,16.47
2018-01-08T06:11:29.876Z,16.53
2018-01-08T06:14:00.710Z,19.10
2018-01-08T06:16:31.508Z,17.33
2018-01-08T06:19:02.301Z,18.47
2018-01-08T06:21:33.082Z,17.73
2018-01-08T06:24:03.849Z,19.07
2018-01-08T06:26:34.628Z,20.30
2018-01-08T06:29:06.441Z,20.23
2018-01-08T06:31:37.215Z,17.00
2018-01-08T06:34:07.985Z,21.43
2018-01-08T06:36:38.748Z,22.17
2018-01-08T06:39:09.493Z,20.70
2018-01-08T06:41:40.273Z,23.50
2018-01-08T06:44:11.030Z,18.80
2018-01-08T06:46:41.799Z,18.93
2018-01-08T06:49:12.548Z,20.30
2018-01-08T06:51:43.305Z,25.07
2018-01-08T06:54:14.048Z,19.10
2018-01-08T06:56:45.860Z,21.50
2018-01-08T06:59:16.595Z,20.05
2018-01-08T07:01:52.224Z,19.33
2018-01-08T07:04:29.852Z,23.48
2018-01-08T07:07:00.617Z,19.83
2018-01-08T07:09:31.360Z,21.87
2018-01-08T07:12:02.157Z,21.23
2018-01-08T07:14:32.904Z,20.30
2018-01-08T07:17:03.684Z,25.50
2018-01-08T07:19:34.430Z,26.53
2018-01-08T07:22:06.289Z,18.23
2018-01-08T07:24:37.066Z,24.25
2018-01-08T07:27:07.828Z,23.33
2018-01-08T07:29:38.592Z,21.20
2018-01-08T07:32:09.372Z,24.60
2018-01-08T07:34:40.168Z,20.33
2018-01-08T07:37:10.938Z,19.97
2018-01-08T07:39:41.847Z,19.00
2018-01-08T07:42:12.825Z,22.60
2018-01-08T07:44:43.613Z,26.73
2018-01-08T07:47:14.687Z,23.87
2018-01-08T07:49:46.558Z,19.62
2018-01-08T07:52:17.676Z,22.85
2018-01-08T07:54:48.878Z,24.15
2018-01-08T07:57:24.679Z,19.02
2018-01-08T07:59:55.686Z,23.90
2018-01-08T08:02:26.631Z,22.00
2018-01-08T08:04:57.862Z,22.40
2018-01-08T08:07:34.909Z,23.85
2018-01-08T08:10:06.024Z,20.90
2018-01-08T08:12:39.241Z,18.60
2018-01-08T08:15:13.426Z,20.40
2018-01-08T08:17:46.328Z,22.30
2018-01-08T08:20:17.151Z,22.58
2018-01-08T08:22:47.909Z,22.57
2018-01-08T08:25:18.645Z,20.90
2018-01-08T08:27:50.484Z,20.33
2018-01-08T08:30:21.229Z,23.25
2018-01-08T08:32:52.013Z,19.83
2018-01-08T08:35:22.861Z,18.10
2018-01-08T08:37:58.721Z,24.37
2018-01-08T08:40:29.523Z,19.17
2018-01-08T08:43:00.246Z,19.13
2018-01-08T08:45:31.004Z,19.70
2018-01-08T08:48:01.766Z,18.37
2018-01-08T08:50:32.534Z,23.57
2018-01-08T08:53:04.354Z,20.13
2018-01-08T08:55:35.140Z,18.40
2018-01-08T08:58:07.998Z,19.03
2018-01-08T09:00:38.833Z,17.30
2018-01-08T09:03:09.632Z,23.73
2018-01-08T09:05:45.969Z,15.17
2018-01-08T09:08:16.733Z,20.27
2018-01-08T09:10:47.476Z,23.80
2018-01-08T09:13:19.355Z,20.00
2018-01-08T09:15:50.102Z,19.35
2018-01-08T09:18:20.865Z,17.03
2018-01-08T09:20:51.610Z,16.80
2018-01-08T09:23:22.375Z,13.83
2018-01-08T09:25:54.216Z,13.73
2018-01-08T09:28:28.132Z,13.45
2018-01-08T09:30:59.916Z,12.63
2018-01-08T09:33:30.717Z,13.50
2018-01-08T09:36:01.453Z,18.43
2018-01-08T09:38:32.236Z,15.47
2018-01-08T09:41:02.993Z,13.93
2018-01-08T09:43:33.756Z,12.67
2018-01-08T09:46:06.536Z,15.10
2018-01-08T09:48:37.305Z,13.15
2018-01-08T09:51:08.051Z,12.37
2018-01-08T09:53:38.813Z,15.70
2018-01-08T09:56:09.576Z,11.13
2018-01-08T09:58:45.464Z,13.37
2018-01-08T10:01:17.433Z,14.95
2018-01-08T10:04:00.488Z,19.50
2018-01-08T10:06:43.752Z,12.98
2018-01-08T10:09:26.941Z,15.02
2018-01-08T10:12:14.446Z,10.93
2018-01-08T10:14:57.656Z,12.65
2018-01-08T10:17:40.798Z,12.43
2018-01-08T10:20:11.649Z,13.70
2018-01-08T10:22:42.517Z,13.97
2018-01-08T10:25:13.404Z,12.83
2018-01-08T10:27:44.265Z,14.57
2018-01-08T10:30:15.226Z,13.47
2018-01-08T10:32:46.115Z,15.67
2018-01-08T10:35:17.013Z,13.07
2018-01-08T10:37:47.887Z,17.20
2018-01-08T10:40:18.760Z,15.10
2018-01-08T10:42:55.684Z,12.97
2018-01-08T10:45:32.780Z,17.75
2018-01-08T10:48:09.872Z,13.77
2018-01-08T10:50:46.916Z,10.73
2018-01-08T10:53:20.853Z,16.25
2018-01-08T10:55:51.729Z,13.55
2018-01-08T10:58:22.590Z,15.97
2018-01-08T11:01:05.905Z,13.73
2018-01-08T11:03:42.877Z,15.38
2018-01-08T11:06:14.867Z,12.20
2018-01-08T11:08:45.675Z,12.65
2018-01-08T11:11:16.505Z,13.07
2018-01-08T11:13:47.380Z,13.63
2018-01-08T11:16:18.321Z,14.97
2018-01-08T11:18:56.785Z,14.43
2018-01-08T11:21:27.664Z,15.82
2018-01-08T11:23:58.500Z,16.17
2018-01-08T11:26:29.418Z,14.97
2018-01-08T11:29:00.285Z,14.93
2018-01-08T11:31:31.137Z,16.53
2018-01-08T11:34:02.016Z,17.87
2018-01-08T11:36:32.843Z,18.23
2018-01-08T11:39:03.741Z,16.43
2018-01-08T11:41:35.712Z,14.53
2018-01-08T11:44:06.521Z,17.83
2018-01-08T11:46:37.326Z,14.00
2018-01-08T11:49:12.092Z,13.33
2018-01-08T11:51:44.897Z,16.12
2018-01-08T11:54:20.944Z,14.20
2018-01-08T11:56:51.720Z,14.98
2018-01-08T11:59:29.802Z,12.13
2018-01-08T12:02:00.576Z,11.77
2018-01-08T12:04:33.392Z,13.57
2018-01-08T12:07:04.197Z,12.70
2018-01-08T12:09:35.272Z,12.43
2018-01-08T12:12:15.050Z,14.50
2018-01-08T12:14:46.876Z,15.52
2018-01-08T12:17:17.677Z,14.30
2018-01-08T12:19:48.450Z,15.00
2018-01-08T12:22:19.209Z,16.10
2018-01-08T12:24:50.021Z,13.63
2018-01-08T12:27:20.792Z,13.60
2018-01-08T12:29:51.547Z,13.30
2018-01-08T12:32:26.030Z,14.90
2018-01-08T12:34:56.800Z,12.60
2018-01-08T12:37:27.561Z,15.67
2018-01-08T12:40:02.097Z,13.60
2018-01-08T12:42:32.947Z,13.73
2018-01-08T12:45:04.791Z,14.83
2018-01-08T12:47:35.568Z,13.80
2018-01-08T12:50:06.363Z,14.17
2018-01-08T12:52:37.157Z,13.83
2018-01-08T12:55:07.912Z,13.80
2018-01-08T12:58:00.193Z,13.50
2018-01-08T13:00:31.002Z,15.88
2018-01-08T13:03:01.791Z,14.70
2018-01-08T13:05:39.652Z,16.60
2018-01-08T13:08:10.461Z,12.63
2018-01-08T13:10:41.303Z,14.80
2018-01-08T13:13:12.100Z,13.73
2018-01-08T13:15:43.156Z,17.80
2018-01-08T13:18:14.017Z,15.75
2018-01-08T13:20:44.777Z,15.43
2018-01-08T13:23:15.580Z,14.53
2018-01-08T13:25:58.376Z,17.83
2018-01-08T13:28:29.347Z,18.02
2018-01-08T13:31:00.147Z,17.83
2018-01-08T13:33:31.031Z,16.90
2018-01-08T13:36:01.933Z,15.83
2018-01-08T13:38:32.850Z,16.83
2018-01-08T13:41:03.651Z,16.67
2018-01-08T13:43:34.464Z,16.83
2018-01-08T13:46:05.268Z,18.50
2018-01-08T13:48:36.052Z,18.00
2018-01-08T13:51:06.819Z,19.13
2018-01-08T13:53:37.596Z,17.03
2018-01-08T13:56:08.372Z,18.57
2018-01-08T13:58:39.165Z,13.57
2018-01-08T14:01:09.956Z,16.43
2018-01-08T14:03:40.773Z,18.57
2018-01-08T14:06:30.452Z,17.30
2018-01-08T14:09:01.277Z,17.08
2018-01-08T14:11:32.204Z,17.10
2018-01-08T14:14:03.045Z,14.97
2018-01-08T14:16:33.813Z,17.00
2018-01-08T14:19:04.596Z,19.33
2018-01-08T14:21:35.367Z,19.97
2018-01-08T14:24:06.156Z,17.53
2018-01-08T14:29:54.388Z,17.10
2018-01-08T14:32:25.145Z,16.35
2018-01-08T14:34:57.992Z,19.57
2018-01-08T14:37:28.809Z,23.42
2018-01-08T14:40:00.682Z,20.33
2018-01-08T14:42:31.456Z,18.37
2018-01-08T14:45:16.220Z,19.90
2018-01-08T14:47:47.008Z,25.30
2018-01-08T14:50:17.823Z,19.33
2018-01-08T14:52:48.705Z,19.63
2018-01-08T14:55:19.485Z,16.47
2018-01-08T14:57:50.265Z,17.43
2018-01-08T15:00:21.049Z,18.37
2018-01-08T15:02:51.852Z,16.70
2018-01-08T15:05:22.735Z,22.23
2018-01-08T15:07:53.522Z,18.40
2018-01-08T15:10:24.308Z,17.13
2018-01-08T15:12:55.077Z,16.17
2018-01-08T15:15:25.868Z,15.53
2018-01-08T15:17:56.687Z,18.80
2018-01-08T15:20:40.505Z,18.73
2018-01-08T15:23:16.948Z,17.52
2018-01-08T15:26:02.068Z,17.12
2018-01-08T15:28:37.673Z,17.40
2018-01-08T15:31:08.437Z,16.40
2018-01-08T15:33:39.442Z,15.70
2018-01-08T15:36:10.421Z,17.87
2018-01-08T15:38:56.588Z,15.38
2018-01-08T15:41:30.788Z,17.35
2018-01-08T15:47:07.919Z,18.15
2018-01-08T15:49:38.713Z,13.95
2018-01-08T15:52:09.474Z,16.23
2018-01-08T15:54:40.268Z,17.03
2018-01-08T15:57:11.074Z,15.90
2018-01-08T15:59:41.880Z,18.67
2018-01-08T16:02:12.694Z,14.30
2018-01-08T16:04:52.052Z,18.90
2018-01-08T16:07:22.821Z,15.20
2018-01-08T16:09:53.602Z,19.07
2018-01-08T16:12:30.138Z,16.93
2018-01-08T16:15:00.906Z,15.50
2018-01-08T16:17:31.653Z,15.77
2018-01-08T16:20:10.779Z,14.03
2018-01-08T16:22:41.540Z,17.70
2018-01-08T16:25:12.300Z,18.10
2018-01-08T16:27:43.045Z,17.17
2018-01-08T16:30:13.829Z,17.97
2018-01-08T16:32:45.677Z,18.17
2018-01-08T16:35:16.476Z,16.10
2018-01-08T16:37:47.227Z,18.53
2018-01-08T16:40:29.440Z,15.40
2018-01-08T16:43:00.184Z,16.80
2018-01-08T16:45:32.967Z,16.00
2018-01-08T16:48:03.725Z,14.50
2018-01-08T16:50:34.496Z,22.17
2018-01-08T16:53:05.249Z,16.97
2018-01-08T16:55:36.049Z,15.73
2018-01-08T16:58:06.844Z,14.23
2018-01-08T17:00:37.617Z,17.60
2018-01-08T17:03:20.178Z,19.13
2018-01-08T17:05:50.962Z,15.32
2018-01-08T17:08:21.712Z,12.73
2018-01-08T17:10:57.596Z,14.77
2018-01-08T17:13:53.857Z,15.07
2018-01-08T17:16:33.586Z,12.75
2018-01-08T17:19:04.371Z,15.70
2018-01-08T17:21:35.138Z,14.03
2018-01-08T17:24:05.888Z,15.40
2018-01-08T17:27:01.008Z,17.23
2018-01-08T17:29:40.676Z,16.80
2018-01-08T17:32:11.437Z,15.95
2018-01-08T17:34:42.210Z,15.10
2018-01-08T17:37:12.966Z,14.70
2018-01-08T17:42:46.132Z,14.18
2018-01-08T17:45:16.940Z,14.18
2018-01-08T17:47:47.738Z,14.43
2018-01-08T17:50:18.526Z,13.67
2018-01-08T17:52:56.399Z,11.63
2018-01-08T17:55:27.148Z,14.32
2018-01-08T17:58:06.895Z,15.80
2018-01-08T18:00:37.664Z,11.57
2018-01-08T18:03:09.542Z,14.80
2018-01-08T18:05:40.342Z,14.32
2018-01-08T18:08:11.102Z,12.80
2018-01-08T18:10:41.864Z,11.87
2018-01-08T18:13:12.678Z,16.57
2018-01-08T18:15:43.446Z,15.73
2018-01-08T18:18:14.246Z,13.40
2018-01-08T18:20:45.007Z,15.23
2018-01-08T18:23:15.818Z,13.47
2018-01-08T18:25:46.586Z,15.43
2018-01-08T18:28:17.357Z,14.73
2018-01-08T18:30:48.268Z,14.23
2018-01-08T18:33:19.096Z,14.20
2018-01-08T18:35:49.988Z,16.03
2018-01-08T18:38:20.789Z,16.30
2018-01-08T18:40:51.616Z,14.33
2018-01-08T18:43:22.463Z,15.23
2018-01-08T18:46:20.127Z,15.33
2018-01-08T18:48:50.932Z,13.52
2018-01-08T18:51:21.704Z,15.40
2018-01-08T18:54:16.796Z,14.57
2018-01-08T18:56:47.581Z,18.10
2018-01-08T18:59:18.370Z,14.83
2018-01-08T19:01:49.148Z,18.17
2018-01-08T19:04:19.965Z,17.37
2018-01-08T19:06:51.820Z,13.23
2018-01-08T19:09:22.597Z,13.57
2018-01-08T19:11:53.348Z,14.70
2018-01-08T19:14:30.988Z,15.53
2018-01-08T19:17:01.898Z,11.40
2018-01-08T19:19:32.685Z,13.43
2018-01-08T19:22:03.467Z,12.90
2018-01-08T19:24:34.302Z,12.93
2018-01-08T19:27:05.121Z,13.60
2018-01-08T19:29:42.926Z,13.53
2018-01-08T19:32:13.716Z,15.85
2018-01-08T19:34:45.636Z,13.87
2018-01-08T19:37:16.377Z,12.32
2018-01-08T19:39:48.239Z,14.13
2018-01-08T19:42:23.763Z,13.77
2018-01-08T19:45:01.264Z,14.57
2018-01-08T19:47:32.013Z,13.35
2018-01-08T19:50:04.886Z,14.20
2018-01-08T19:52:35.702Z,12.98
2018-01-08T19:55:06.529Z,11.03
2018-01-08T19:57:37.322Z,16.07
2018-01-08T20:00:08.153Z,12.30
2018-01-08T20:02:39.941Z,9.90
2018-01-08T20:05:10.748Z,14.52
2018-01-08T20:07:41.560Z,14.23
2018-01-08T20:10:30.282Z,12.60
2018-01-08T20:13:01.082Z,12.43
2018-01-08T20:18:33.991Z,10.45
2018-01-08T20:21:04.800Z,7.70
2018-01-08T20:23:35.635Z,10.87
2018-01-08T20:26:26.352Z,11.50
2018-01-08T20:28:57.272Z,9.20
2018-01-08T20:31:29.380Z,12.43
2018-01-08T20:34:02.303Z,10.43
2018-01-08T20:36:33.084Z,10.80
2018-01-08T20:39:04.236Z,9.43
2018-01-08T20:41:36.120Z,8.98
2018-01-08T20:44:13.316Z,12.68
2018-01-08T20:46:46.152Z,9.02
2018-01-08T20:49:20.636Z,10.73
2018-01-08T20:51:53.541Z,10.05
2018-01-08T20:54:24.392Z,9.15
2018-01-08T20:57:01.159Z,9.07
2018-01-08T20:59:31.984Z,8.88
2018-01-08T21:02:02.799Z,9.50
2018-01-08T21:04:33.614Z,10.20
2018-01-08T21:07:04.396Z,8.23
2018-01-08T21:09:35.144Z,7.80
2018-01-08T21:12:06.980Z,8.50
2018-01-08T21:14:37.792Z,7.75
2018-01-08T21:17:15.417Z,8.23
2018-01-08T21:19:47.264Z,8.43
2018-01-08T21:22:18.069Z,9.43
2018-01-08T21:24:50.879Z,8.17
2018-01-08T21:27:21.805Z,9.50
2018-01-08T21:29:52.735Z,7.83
2018-01-08T21:32:23.620Z,8.77
2018-01-08T21:34:56.464Z,8.80
2018-01-08T21:37:27.335Z,9.27
2018-01-08T21:39:58.190Z,11.60
2018-01-08T21:42:32.271Z,8.90
2018-01-08T21:45:13.977Z,8.27
2018-01-08T21:47:44.785Z,7.40
2018-01-08T21:50:15.586Z,7.97
2018-01-08T21:52:47.508Z,7.17
2018-01-08T21:55:18.328Z,8.43
2018-01-08T21:57:49.187Z,6.03
2018-01-08T22:00:20.114Z,6.80
2018-01-08T22:02:50.939Z,7.73
2018-01-08T22:05:21.788Z,6.40
2018-01-08T22:07:52.591Z,10.87
2018-01-08T22:10:24.467Z,6.80
2018-01-08T22:12:55.279Z,5.62
2018-01-08T22:15:26.115Z,5.80
2018-01-08T22:17:59.041Z,6.40
2018-01-08T22:20:29.849Z,6.97
2018-01-08T22:23:03.071Z,5.77
2018-01-08T22:25:33.892Z,7.90
2018-01-08T22:28:04.781Z,5.50
2018-01-08T22:30:35.613Z,5.90
2018-01-08T22:33:06.448Z,7.80
2018-01-08T22:35:37.242Z,6.67
2018-01-08T22:38:09.121Z,6.80
2018-01-08T22:40:40.591Z,6.85
2018-01-08T22:43:11.428Z,6.87
2018-01-08T22:45:44.259Z,7.07
2018-01-08T22:48:15.063Z,6.70
2018-01-08T22:50:46.224Z,6.90
2018-01-08T22:56:12.948Z,7.90
2018-01-08T22:58:43.844Z,6.40
2018-01-08T23:01:15.716Z,5.67
2018-01-08T23:03:46.517Z,6.47
2018-01-08T23:06:17.337Z,5.80
2018-01-08T23:08:48.933Z,5.97
2018-01-08T23:11:19.763Z,5.80
2018-01-08T23:13:50.593Z,7.17
2018-01-08T23:16:21.446Z,5.20
2018-01-08T23:18:52.284Z,5.70
2018-01-08T23:21:23.164Z,6.43
2018-01-08T23:23:53.984Z,6.13
2018-01-08T23:26:24.784Z,6.30
2018-01-08T23:28:55.594Z,6.33
2018-01-08T23:31:26.438Z,6.20
2018-01-08T23:36:34.669Z,5.25
2018-01-08T23:39:05.436Z,8.00
2018-01-08T23:41:36.194Z,5.27
2018-01-08T23:44:07.018Z,7.03
2018-01-08T23:46:37.858Z,5.47
2018-01-08T23:49:08.646Z,6.13
2018-01-08T23:51:39.431Z,5.67
2018-01-08T23:54:21.462Z,5.77
2018-01-08T23:56:52.264Z,5.40
2018-01-08T23:59:23.025Z,5.53
